+91-9650519870      info@tradegeniusglobal.in

FRAME IMPORT DATA IN INDIA | FRAME IMPORTER IN INDIA

FRAME IMPORT DATA IN INDIA | FRAME IMPORTER IN INDIA

Trade Genius Global provide FRAME import data in India with details like importers in India Exporter from oversees countries like USA, China, Germany France, Indonesia, Turkey, Thailand, Brazil, Sri Lanka, Argentina, Bolivia, Chile, Columbia, Ecuador, Mexico, Panama, Paraguay, Peru, Uruguay, Venezuela, Costa Rica, Ukraine, Bangladesh, Nepal, Vietnam and Singapore etc with price details including Import duty.

Content of data record are as Bill of Entry Data, H.S Code, Product Description, Value, Quantity, Unit Price in INR & USD , CIF Value, Custom Duty, Foreign Country port and more.

Import/Export records for the product FRAME:

SB Date HS Code Product Quantity Unit Value in USD Unit in USD Foreign Port Foreign Country Indian Port Mode
11-01-2016 83016000 208-2403.03-00025 SHOE FOR STANDARD FRAME A=25MM (PARTS OF L - OCK) 2000 PCS 261.06 0.13 GERMANY BANGLORE AIR
11-01-2016 85044090 SINAMICS S120 ACTIVE INTERFACE MODULE FOR 36KW ACTIVE LINE M - ODULE INPUT: 3AC 380-480V, 50/60HZ FRAME SIZE: BOOKSIZE 6 1 PCS 863.86 863.86 GERMANY BANGLORE AIR
11-01-2016 73262090 NAFFM78SIM NSM FRAME 700x800 - 24 NOS 1215.3 50.64 CHINA BANGLORE AIR
11-01-2016 85044090 SINAMICS S120 SINGLE MOTOR MODULE INPUT: DC 600V OUTPUT: 3AC - 400V, 18A FRAME SIZE: BOOKSIZE INTERNAL AIR COOLING 6SL3 1 PCS 832.39 832.39 GERMANY BANGLORE AIR
11-01-2016 85366990 SINAMICS S120 POWER CONNECTOR WITH SCREW TERMINALS FOR MOTOR - MODULES 3-30 A FRAME SIZE: BOOKSIZE 6SL3162-2MA00-0AA0 8 PCS 179.39 22.42 GERMANY BANGLORE AIR
11-01-2016 85366990 SINAMICS S120 POWER CONNECTOR WITH SCREW TERMINALS FOR MOTOR - MODULES 3-30 A FRAME SIZE: BOOKSIZE 6SL3162-2MA00-0AA0 1 PCS 22.42 22.42 GERMANY BANGLORE AIR
11-01-2016 85044090 SINAMICS S120 DOUBLE MOTOR MODULE INPUT: DC 600V OUTPUT: 3AC - 400V, 5A/5A FRAME SIZE: BOOKSIZE INTERNAL AIR COOLING 6S 1 PCS 736.82 736.82 GERMANY BANGLORE AIR
11-01-2016 85044090 SINAMICS S120 SMART LINE MODULE INPUT: 3AC 380-480V, 50/60HZ - OUTPUT: DC 600V, 60A, 36KW FRAME SIZE: BOOKSIZE EXTERNAL AI 1 PCS 1526.06 1526.06 GERMANY BANGLORE AIR
11-01-2016 84439960 FOC ITEM - SHUTTLE FRAME, MACH, SLOTTED BORE, 5/10/03H ( PAR - T# 256531-002 ) ( PARTS FOR PRINTER ) 2 NOS 46.17 23.09 MALAYSIA BANGLORE AIR
11-01-2016 85044090 SINAMICS S120 COMBI POWER MODULE INPUT: 3AC 400V, 20KW OUTPU - T: 3AC 400V, 30A, 9A, 9A FRAME SIZE: COMBI EXTERNAL AIR COOL 1 PCS 1864.01 1864.01 GERMANY BANGLORE AIR
11-01-2016 85437099 RACK ACCESSORIES-GLOBALFRAME CABINET (GEN 2) 42U 600MM W 120 - 0MM D SQ PUNCHED SLIDING RLS 4 PCS 10384.92 2596.23 UNITED STATES CHENNAI AIR
11-01-2016 97011090 WORK OF ART- TITLE: ALEX PRAGER UNDO, 2004, C-PRINT 24X24 IN - CHES (PRINT) 61X50.8 CM 30.13X26.06 INCHES (FRAMED) 76.5X66. 1 UNT 18294.18 18294.18 SINGAPORE CHENNAI AIR
11-01-2016 87089900 MEMEBER STAY-FR SUBFRAME (544690003R)(FOR AUTOMATIVE SPARE P - ARTS)(ACTUAL USER) (1 PCS) 1 KGS 2.02 1.4 ROMANIA CHENNAI AIR
11-01-2016 87089900 FRAME-RR RH ADD (822160252R)(FOR AUTOMATIVE SPARE PARTS)(ACT - UAL USER) (1 PCS) 0 KGS 8.11 90.15 ROMANIA CHENNAI AIR
11-01-2016 87089900 FRAME-RR LH ADD (822170861R)(FOR AUTOMATIVE SPARE PARTS)(ACT - UAL USER) (1 PCS) 0 KGS 8.11 90.15 ROMANIA CHENNAI AIR
11-01-2016 73083000 PERMIUM-DOOR-HINGED-4SIDE FRAME-MESH 0.8/304-G-U MESH TYPE - 1005X2110 BROWN (2.121 SQM) (1 SET) 24 KGS 543.32 22.36 THAILAND CHENNAI AIR
11-01-2016 73083000 PERMIUM-DOOR-FRENCH-3SIDE FRAME-MESH 0.8/304-G-U WITH SCX220 - MESH TYPE 1067X2100 WHITE (2.241 SQM) (1 SET) 49 KGS 703.64 14.43 THAILAND CHENNAI AIR
11-01-2016 39269099 FRAME BRACKET 24x120M.F. L.2100 - TM1.24120.MF.210 - 20 PCS 478.09 23.9 ITALY CHENNAI AIR
11-01-2016 84483990 P164-101-190-280 ALU POWER FRAME 124 FOR PICANOL OMINI - (PLUS), GAMMA(X) (TEXTILE MACHINERY PARTS) 30 PCS 7116.53 237.22 BELGIUM CHENNAI AIR
11-01-2016 84483990 P164-101-190-280 ALU POWER FRAME 124 FOR PICANOL OMINI - (PLUS) GAMMA(X) (TEXTILE MACHINERY PARTS) 50 PCS 11860.89 237.22 BELGIUM CHENNAI AIR
11-01-2016 83023090 7373958 ASSY RH FINISH. WIND. FRAME CIRCUL. CHRO N5137640 (O - E PARTS MANUFACTURING PURPOSE) (1 NUM) 1 KGS 187.6 205.93 GERMANY CHENNAI AIR
11-01-2016 90031900 OPTICAL FRAMES GUESS GM0285 (WITH CASES) - 38 UNT 1158.32 30.48 CHINA KOLKATA AIR
11-01-2016 90031900 OPTICAL FRAMES GUESS GU2553 (WITH CASES) - 3 UNT 80.41 26.8 CHINA KOLKATA AIR
11-01-2016 90031900 OPTICAL FRAMES GUESS 2578 (WITH CASES) - 50 UNT 1261.33 25.23 CHINA KOLKATA AIR
11-01-2016 90031900 OPTICAL FRAMES GU2541 (WITH CASES) - 57 UNT 1198.26 21.02 CHINA KOLKATA AIR
11-01-2016 85389000 LV438018 NSX100S DC 3P 100KA (FRAME W/O TRIP UNIT (PARTS OF - CIRCUIT BREAKER) 10 PCS 487.32 48.73 FRANCE HYDERABAD AIR
11-01-2016 90318000 AUTOMATIC TESTING MACHINE UNIFRAME-MINI FOR TRANSVERSE DEFOR - MATION OF TILE ADHESIVE AND GROUT (70-T0108/MINI) 1 NOS 5794.03 5794.03 ITALY HYDERABAD AIR
11-02-2016 39269099 (INSERT PLASTIC BOXES) - SYSTEMBOARD INSERTS FRAME 400 COLOR - YELLOW 25 NOS 301.5 12.06 GERMANY BANGLORE AIR
11-02-2016 90185090 FRAME GRABBER CARD -000000-0454-630 - 1 NOS 745.27 745.27 GERMANY BANGLORE AIR
11-02-2016 85285900 IDS-3115ER-25XGA1E LCD DISPLAY 15" XGA OPEN FRAME MONITOR 25 - 0NITS WITH RES TS 1 PCS 229.93 229.93 TAIWAN BANGLORE AIR
11-02-2016 90229090 (2366496) MX100 GLASS FRAME (FOR MFR OF X-RAY TUBES) - 54 NOS 1868.03 34.59 UNITED STATES BANGLORE AIR
11-02-2016 84484990 18257 NON-REVERSIBLE SPINNING RINGS FORM A-K2 (PARTS FOR TOY - OTA RING SPINNING FRAME ) 7488 PCS 26523.05 3.54 GERMANY BANGLORE AIR
11-02-2016 70072190 0.33MM TEMPERED GLASS SCREEN PROTECTOR-FULL SCREEN COVERAGE - GLASS (BLACK FRAME)-MIVITGSP0043 3000 PCS 5468.7 1.82 CHINA BANGLORE AIR
11-02-2016 86079910 OUTFITTING MATERIALS FOR METRO RAIL)42P HINGED FRAME 24B - PART # 36040340 18 NOS 18.06 1 KOREA,REPUBLIC OF BANGLORE AIR
11-02-2016 86079910 OUTFITTING MATERIALS FOR METRO RAIL)42P HINGED FRAME 24B - PART # 36040340 12 NOS 12.04 1 KOREA,REPUBLIC OF BANGLORE AIR
11-02-2016 86079910 OUTFITTING MATERIALS FOR METRO RAIL)42P HINGED FRAME 10B-PL - UG PART # 36040335 12 NOS 12.04 1 KOREA,REPUBLIC OF BANGLORE AIR
11-02-2016 90031100 PLASTIC SPECTACLE FRAMES - 32700 NOS 43179.16 1.32 CHINA BANGLORE AIR
11-02-2016 39202090 PP FRAME - 504 NOS 5473.74 10.86 CHINA BANGLORE AIR
11-02-2016 85044029 N6700B LOW-PROFILE MODULAR POWER SYSTEM MAINFRAME (PARTS OF - TESTING EQUIP) (STPIB/IMP/26102016/0138/26466 DT:26/10/16) 2 NOS 5560.86 2780.43 MALAYSIA BANGLORE AIR
11-02-2016 90031900 FRAMES AND MOUNTING FOR SPECTACLES - T2386A1A1 - 300 NOS 2072.84 6.91 HONG KONG BANGLORE AIR
11-02-2016 90031900 FRAMES AND MOUNTING FOR SPECTACLES - T2386B1A1 - 300 NOS 2072.84 6.91 HONG KONG BANGLORE AIR
11-02-2016 90031900 FRAMES AND MOUNTING FOR SPECTACLES - T2387A1A1 - 300 NOS 1768.01 5.89 HONG KONG BANGLORE AIR
11-02-2016 90031900 FRAMES AND MOUNTING FOR SPECTACLES - T2387B1A1 - 300 NOS 1768.01 5.89 HONG KONG BANGLORE AIR
11-02-2016 90031900 FRAMES AND MOUNTING FOR SPECTACLES - T2387C1A1 - 300 NOS 1768.01 5.89 HONG KONG BANGLORE AIR
11-02-2016 90031900 FRAMES AND MOUNTING FOR SPECTACLES - T2389A1A1 - 300 NOS 2072.84 6.91 HONG KONG BANGLORE AIR
11-02-2016 90031900 (OPTICAL FRAME) T2441 A1A1 - 650 NOS 3984.97 6.13 CHINA BANGLORE AIR
11-02-2016 90031900 (OPTICAL FRAME) T2441 B1A1 - 650 NOS 3984.97 6.13 CHINA BANGLORE AIR
11-02-2016 90031900 (OPTICAL FRAME) T2442 A1A1 - 450 NOS 2758.83 6.13 CHINA BANGLORE AIR
11-02-2016 90031900 (OPTICAL FRAME) T2442 B1A1 - 450 NOS 2758.83 6.13 CHINA BANGLORE AIR
11-02-2016 84679900 143762-8 M1902 MAIN FRAME COMPLETE - (SPARE PARTS FOR MAKITA ELECTRIC POWER TOOL) 15 NOS 105.47 7.03 CHINA BANGLORE AIR

Sample Data on Request

Submit this form below to get import or export sample data.

Take advantages with the Help of Our Export Import Products

Trade Genius Global provides Export Import data on the value and quantity of merchandise exported and imported between various countries and its trading partners. We are providing information about actual overseas importers and exporters, having the largest databases in terms of both the number of countries included in its database.

gujarat export import data

Search Import Export Data

Import Export

Export Products New Market

Here you will get top import and export products data of various countries.

Learn More

Monitor Competitors

An organized import export directory will help you to monitor Competitors in the market.

Learn More

Find Importers and Exporters

Increase Business Leads & Find exporters and importers of thousands of import and export products.

Learn More

Increase Business Leads

Gather data about Import export and take your business to a new level.

Learn More